createdAt,value
2023-12-12T00:00:57.631Z,0.50
2023-12-12T00:01:57.648Z,0.51
2023-12-12T00:02:57.630Z,0.52
2023-12-12T00:03:57.712Z,0.51
2023-12-12T00:04:57.640Z,0.52
2023-12-12T00:05:57.758Z,0.52
2023-12-12T00:06:57.767Z,0.52
2023-12-12T00:07:57.770Z,0.52
2023-12-12T00:08:57.797Z,0.52
2023-12-12T00:09:57.870Z,0.54
2023-12-12T00:10:57.879Z,0.53
2023-12-12T00:11:57.938Z,0.51
2023-12-12T00:12:57.974Z,0.53
2023-12-12T00:13:58.004Z,0.51
2023-12-12T00:14:58.064Z,0.51
2023-12-12T00:15:58.163Z,0.51
2023-12-12T00:16:58.136Z,0.51
2023-12-12T00:17:58.236Z,0.51
2023-12-12T00:18:58.462Z,0.52
2023-12-12T00:19:58.315Z,0.51
2023-12-12T00:20:58.308Z,0.51
2023-12-12T00:21:58.375Z,0.52
2023-12-12T00:22:58.380Z,0.53
2023-12-12T00:23:58.418Z,0.52
2023-12-12T00:24:58.456Z,0.52
2023-12-12T00:25:58.496Z,0.52
2023-12-12T00:26:58.519Z,0.52
2023-12-12T00:27:58.574Z,0.51
2023-12-12T00:28:58.585Z,0.52
2023-12-12T00:29:58.633Z,0.51
2023-12-12T00:30:58.661Z,0.51
2023-12-12T00:31:58.719Z,0.50
2023-12-12T00:32:58.847Z,0.51
2023-12-12T00:33:58.866Z,0.52
2023-12-12T00:34:58.947Z,0.51
2023-12-12T00:35:58.882Z,0.53
2023-12-12T00:36:58.954Z,0.53
2023-12-12T00:37:58.996Z,0.52
2023-12-12T00:38:59.019Z,0.52
2023-12-12T00:39:59.153Z,0.52
2023-12-12T00:40:59.106Z,0.52
2023-12-12T00:41:59.155Z,0.52
2023-12-12T00:42:59.204Z,0.52
2023-12-12T00:43:59.246Z,0.52
2023-12-12T00:44:59.303Z,0.52
2023-12-12T00:45:59.341Z,0.53
2023-12-12T00:46:59.362Z,0.52
2023-12-12T00:47:59.505Z,0.51
2023-12-12T00:48:59.577Z,0.51
2023-12-12T00:49:59.596Z,0.52
2023-12-12T00:50:59.552Z,0.52
2023-12-12T00:51:59.639Z,0.52
2023-12-12T00:52:59.602Z,0.51
2023-12-12T00:54:01.031Z,0.52
2023-12-12T00:54:59.826Z,0.52
2023-12-12T00:55:59.824Z,0.51
2023-12-12T00:56:59.911Z,0.52
2023-12-12T00:57:59.947Z,0.52
2023-12-12T00:58:59.963Z,0.52
2023-12-12T00:59:59.971Z,0.52
2023-12-12T01:01:00.116Z,0.52
2023-12-12T01:02:00.136Z,0.53
2023-12-12T01:03:00.113Z,0.51
2023-12-12T01:04:00.244Z,0.52
2023-12-12T01:05:00.251Z,0.52
2023-12-12T01:06:00.285Z,0.52
2023-12-12T01:07:00.279Z,0.51
2023-12-12T01:08:00.304Z,0.52
2023-12-12T01:09:00.332Z,0.52
2023-12-12T01:10:00.389Z,0.52
2023-12-12T01:11:00.434Z,0.51
2023-12-12T01:12:00.474Z,0.51
2023-12-12T01:13:00.531Z,0.52
2023-12-12T01:14:00.525Z,0.54
2023-12-12T01:15:00.600Z,0.52
2023-12-12T01:16:00.657Z,0.53
2023-12-12T01:17:00.703Z,0.52
2023-12-12T01:18:00.797Z,0.51
2023-12-12T01:19:00.879Z,0.51
2023-12-12T01:20:00.833Z,0.52
2023-12-12T01:21:00.808Z,0.51
2023-12-12T01:22:00.891Z,0.51
2023-12-12T01:23:00.890Z,0.53
2023-12-12T01:24:00.959Z,0.52
2023-12-12T01:25:01.020Z,0.53
2023-12-12T01:26:01.033Z,0.52
2023-12-12T01:27:01.092Z,0.51
2023-12-12T01:28:01.185Z,0.52
2023-12-12T01:29:01.172Z,0.52
2023-12-12T01:30:01.224Z,0.52
2023-12-12T01:31:01.282Z,0.51
2023-12-12T01:32:01.315Z,0.51
2023-12-12T01:33:01.348Z,0.52
2023-12-12T01:34:01.458Z,0.52
2023-12-12T01:35:01.459Z,0.52
2023-12-12T01:36:01.430Z,0.52
2023-12-12T01:37:01.539Z,0.52
2023-12-12T01:38:01.588Z,0.51
2023-12-12T01:39:01.546Z,0.52
2023-12-12T01:40:01.695Z,0.53
2023-12-12T01:41:01.668Z,0.52
2023-12-12T01:42:01.730Z,0.51
2023-12-12T01:43:01.769Z,0.53
2023-12-12T01:44:01.784Z,0.52
2023-12-12T01:45:01.836Z,0.52
2023-12-12T01:46:01.894Z,0.52
2023-12-12T01:47:01.905Z,0.52
2023-12-12T01:48:02.043Z,0.51
2023-12-12T01:49:02.055Z,0.52
2023-12-12T01:50:02.102Z,0.52
2023-12-12T01:51:02.076Z,0.52
2023-12-12T01:52:02.160Z,0.52
2023-12-12T01:53:02.152Z,0.52
2023-12-12T01:54:02.190Z,0.51
2023-12-12T01:55:02.278Z,0.52
2023-12-12T01:56:02.327Z,0.50
2023-12-12T01:57:02.361Z,0.51
2023-12-12T01:58:02.414Z,0.52
2023-12-12T01:59:02.439Z,0.51
2023-12-12T02:00:02.443Z,0.52
2023-12-12T02:01:02.597Z,0.52
2023-12-12T02:02:02.691Z,0.52
2023-12-12T02:03:02.591Z,0.51
2023-12-12T02:04:02.731Z,0.51
2023-12-12T02:05:02.797Z,0.52
2023-12-12T02:06:02.813Z,0.53
2023-12-12T02:07:02.802Z,0.51
2023-12-12T02:08:02.802Z,0.52
2023-12-12T02:09:03.054Z,0.52
2023-12-12T02:10:02.966Z,0.52
2023-12-12T02:11:02.938Z,0.51
2023-12-12T02:12:02.999Z,0.51
2023-12-12T02:13:03.107Z,0.52
2023-12-12T02:14:03.062Z,0.51
2023-12-12T02:15:03.093Z,0.52
2023-12-12T02:16:03.224Z,0.52
2023-12-12T02:17:03.205Z,0.53
2023-12-12T02:18:03.296Z,0.52
2023-12-12T02:19:03.331Z,0.52
2023-12-12T02:20:03.427Z,0.52
2023-12-12T02:21:03.386Z,0.53
2023-12-12T02:22:03.502Z,0.52
2023-12-12T02:23:03.467Z,0.54
2023-12-12T02:24:03.509Z,0.53
2023-12-12T02:25:03.643Z,0.52
2023-12-12T02:26:03.600Z,0.53
2023-12-12T02:27:03.659Z,0.52
2023-12-12T02:28:03.745Z,0.53
2023-12-12T02:29:03.766Z,0.53
2023-12-12T02:30:03.802Z,0.53
2023-12-12T02:31:03.862Z,0.53
2023-12-12T02:32:03.884Z,0.52
2023-12-12T02:33:04.142Z,0.53
2023-12-12T02:34:03.997Z,0.50
2023-12-12T02:35:04.021Z,0.52
2023-12-12T02:36:04.076Z,0.51
2023-12-12T02:37:04.149Z,0.52
2023-12-12T02:38:04.236Z,0.52
2023-12-12T02:39:04.205Z,0.52
2023-12-12T02:40:04.284Z,0.53
2023-12-12T02:41:04.289Z,0.53
2023-12-12T02:42:04.363Z,0.52
2023-12-12T02:43:04.463Z,0.52
2023-12-12T02:44:04.439Z,0.52
2023-12-12T02:45:04.491Z,0.52
2023-12-12T02:46:04.584Z,0.51
2023-12-12T02:47:04.596Z,0.52
2023-12-12T02:48:04.759Z,0.52
2023-12-12T02:49:04.772Z,0.52
2023-12-12T02:50:04.792Z,0.53
2023-12-12T02:51:04.756Z,0.53
2023-12-12T02:52:04.946Z,0.53
2023-12-12T02:53:04.916Z,0.50
2023-12-12T02:54:04.919Z,0.51
2023-12-12T02:55:04.999Z,0.51
2023-12-12T02:56:05.038Z,0.52
2023-12-12T02:57:05.072Z,0.53
2023-12-12T02:58:05.178Z,0.52
2023-12-12T02:59:05.155Z,0.51
2023-12-12T03:00:05.226Z,0.52
2023-12-12T03:01:05.352Z,0.51
2023-12-12T03:02:05.361Z,0.53
2023-12-12T03:03:05.405Z,0.51
2023-12-12T03:04:05.572Z,0.50
2023-12-12T03:05:05.585Z,0.50
2023-12-12T03:06:05.551Z,0.52
2023-12-12T03:07:05.627Z,0.52
2023-12-12T03:08:05.649Z,0.53
2023-12-12T03:09:05.738Z,0.52
2023-12-12T03:10:05.827Z,0.52
2023-12-12T03:11:05.806Z,0.54
2023-12-12T03:12:05.877Z,0.54
2023-12-12T03:13:05.930Z,0.53
2023-12-12T03:14:06.020Z,0.52
2023-12-12T03:15:06.033Z,0.52
2023-12-12T03:16:06.143Z,0.52
2023-12-12T03:17:06.124Z,0.52
2023-12-12T03:18:06.211Z,0.51
2023-12-12T03:19:06.278Z,0.51
2023-12-12T03:20:06.437Z,0.51
2023-12-12T03:21:06.352Z,0.51
2023-12-12T03:22:06.400Z,0.52
2023-12-12T03:23:06.458Z,0.53
2023-12-12T03:24:06.466Z,0.53
2023-12-12T03:25:06.562Z,0.51
2023-12-12T03:26:06.613Z,0.51
2023-12-12T03:27:06.646Z,0.52
2023-12-12T03:28:06.745Z,0.53
2023-12-12T03:29:06.765Z,0.52
2023-12-12T03:30:06.763Z,0.52
2023-12-12T03:31:06.895Z,0.51
2023-12-12T03:32:06.886Z,0.52
2023-12-12T03:33:07.022Z,0.52
2023-12-12T03:34:55.763Z,0.50
2023-12-12T03:35:55.745Z,0.50
2023-12-12T03:36:55.764Z,0.50
2023-12-12T03:37:55.738Z,0.50
2023-12-12T03:38:55.739Z,0.50
2023-12-12T03:39:55.815Z,0.51
2023-12-12T03:40:55.753Z,0.50
2023-12-12T03:41:55.739Z,0.51
2023-12-12T03:42:55.780Z,0.50
2023-12-12T03:43:55.740Z,0.51
2023-12-12T03:44:56.351Z,0.52
2023-12-12T03:45:55.768Z,0.53
2023-12-12T03:46:55.718Z,0.52
2023-12-12T03:47:55.759Z,0.52
2023-12-12T03:48:55.848Z,0.53
2023-12-12T03:49:55.791Z,0.51
2023-12-12T03:50:55.731Z,0.52
2023-12-12T03:51:55.763Z,0.53
2023-12-12T03:52:55.774Z,0.52
2023-12-12T03:53:55.764Z,0.51
2023-12-12T03:54:55.867Z,0.51
2023-12-12T03:55:55.781Z,0.52
2023-12-12T03:56:55.756Z,0.51
2023-12-12T03:57:55.791Z,0.51
2023-12-12T03:58:55.797Z,0.51
2023-12-12T03:59:55.906Z,0.51
2023-12-12T04:00:56.002Z,0.51
2023-12-12T04:01:56.018Z,0.51
2023-12-12T04:02:56.025Z,0.53
2023-12-12T04:03:56.111Z,0.51
2023-12-12T04:04:56.135Z,0.51
2023-12-12T04:05:56.232Z,0.50
2023-12-12T04:06:56.308Z,0.51
2023-12-12T04:07:56.330Z,0.52
2023-12-12T04:08:56.340Z,0.52
2023-12-12T04:09:56.478Z,0.52
2023-12-12T04:10:56.470Z,0.52
2023-12-12T04:11:56.549Z,0.51
2023-12-12T04:12:56.627Z,0.52
2023-12-12T04:13:56.642Z,0.52
2023-12-12T04:14:56.652Z,0.51
2023-12-12T04:15:56.756Z,0.52
2023-12-12T04:16:56.770Z,0.52
2023-12-12T04:17:56.851Z,0.52
2023-12-12T04:18:57.020Z,0.50
2023-12-12T04:19:57.011Z,0.51
2023-12-12T04:20:56.984Z,0.51
2023-12-12T04:21:57.106Z,0.52
2023-12-12T04:22:57.061Z,0.51
2023-12-12T04:23:57.140Z,0.52
2023-12-12T04:24:57.269Z,0.52
2023-12-12T04:25:57.284Z,0.51
2023-12-12T04:26:59.764Z,0.50
2023-12-12T04:27:57.321Z,0.52
2023-12-12T04:28:57.295Z,0.52
2023-12-12T04:29:57.283Z,0.51
2023-12-12T04:30:57.410Z,0.51
2023-12-12T04:32:04.681Z,0.50
2023-12-12T04:33:04.747Z,0.50
2023-12-12T04:34:04.761Z,0.50
2023-12-12T04:35:04.702Z,0.50
2023-12-12T04:36:04.700Z,0.50
2023-12-12T04:37:04.732Z,0.50
2023-12-12T04:38:04.696Z,0.52
2023-12-12T04:39:04.674Z,0.52
2023-12-12T04:40:04.733Z,0.50
2023-12-12T04:41:04.678Z,0.51
2023-12-12T04:42:04.704Z,0.52
2023-12-12T04:43:04.725Z,0.52
2023-12-12T04:44:04.705Z,0.52
2023-12-12T04:45:04.844Z,0.52
2023-12-12T04:46:04.737Z,0.51
2023-12-12T04:47:04.715Z,0.51
2023-12-12T04:48:04.864Z,0.51
2023-12-12T04:49:04.816Z,0.51
2023-12-12T04:50:04.906Z,0.53
2023-12-12T04:51:04.739Z,0.51
2023-12-12T04:52:04.712Z,0.51
2023-12-12T04:53:04.723Z,0.50
2023-12-12T04:54:04.716Z,0.50
2023-12-12T04:55:04.770Z,0.52
2023-12-12T04:56:04.796Z,0.53
2023-12-12T04:57:04.831Z,0.51
2023-12-12T04:58:04.893Z,0.52
2023-12-12T04:59:04.995Z,0.52
2023-12-12T05:00:05.056Z,0.52
2023-12-12T05:01:05.203Z,0.51
2023-12-12T05:02:05.160Z,0.52
2023-12-12T05:03:05.213Z,0.52
2023-12-12T05:04:05.276Z,0.53
2023-12-12T05:05:05.352Z,0.51
2023-12-12T05:06:05.431Z,0.53
2023-12-12T05:07:05.500Z,0.52
2023-12-12T05:08:05.469Z,0.51
2023-12-12T05:09:05.547Z,0.53
2023-12-12T05:10:05.623Z,0.52
2023-12-12T05:11:05.712Z,0.51
2023-12-12T05:12:05.740Z,0.52
2023-12-12T05:13:05.817Z,0.52
2023-12-12T05:14:05.876Z,0.51
2023-12-12T05:15:05.944Z,0.50
2023-12-12T05:16:16.566Z,0.50
2023-12-12T05:17:10.783Z,0.50
2023-12-12T05:18:06.045Z,0.50
2023-12-12T05:19:06.140Z,0.50
2023-12-12T05:20:06.126Z,0.50
2023-12-12T05:21:06.072Z,0.51
2023-12-12T05:22:06.273Z,0.48
2023-12-12T05:23:06.223Z,0.50
2023-12-12T05:24:06.265Z,0.50
2023-12-12T05:25:06.469Z,0.51
2023-12-12T05:26:06.430Z,0.51
2023-12-12T05:27:06.454Z,0.50
2023-12-12T05:28:06.593Z,0.50
2023-12-12T05:29:06.616Z,0.51
2023-12-12T05:30:06.676Z,0.51
2023-12-12T05:31:06.791Z,0.51
2023-12-12T05:32:06.816Z,0.51
2023-12-12T05:33:06.971Z,0.52
2023-12-12T05:34:07.026Z,0.52
2023-12-12T05:35:06.980Z,0.50
2023-12-12T05:36:07.057Z,0.50
2023-12-12T05:37:07.221Z,0.51
2023-12-12T05:38:07.188Z,0.51
2023-12-12T05:39:07.267Z,0.51
2023-12-12T05:40:07.406Z,0.51
2023-12-12T05:41:07.502Z,0.51
2023-12-12T05:42:07.489Z,0.51
2023-12-12T05:43:07.566Z,0.51
2023-12-12T05:44:08.992Z,0.53
2023-12-12T05:45:07.712Z,0.53
2023-12-12T05:46:07.813Z,0.53
2023-12-12T05:47:07.910Z,0.52
2023-12-12T05:48:07.974Z,0.51
2023-12-12T05:49:08.087Z,0.51
2023-12-12T05:50:08.101Z,0.53
2023-12-12T05:51:08.114Z,0.52
2023-12-12T05:52:08.234Z,0.52
2023-12-12T05:53:08.246Z,0.52
2023-12-12T05:54:08.353Z,0.51
2023-12-12T05:55:08.389Z,0.51
2023-12-12T05:56:08.402Z,0.51
2023-12-12T05:57:08.484Z,0.52
2023-12-12T05:58:08.601Z,0.51
2023-12-12T05:59:08.646Z,0.52
2023-12-12T06:00:08.689Z,0.51
2023-12-12T06:01:08.844Z,0.51
2023-12-12T06:02:08.961Z,0.52
2023-12-12T06:03:08.852Z,0.52
2023-12-12T06:04:08.996Z,0.52
2023-12-12T06:05:09.319Z,0.51
2023-12-12T06:06:09.386Z,0.52
2023-12-12T06:07:09.206Z,0.51
2023-12-12T06:08:09.202Z,0.51
2023-12-12T06:09:09.246Z,0.51
2023-12-12T06:10:09.379Z,0.52
2023-12-12T06:11:09.398Z,0.52
2023-12-12T06:12:09.484Z,0.51
2023-12-12T06:13:09.537Z,0.52
2023-12-12T06:14:09.566Z,0.51
2023-12-12T06:15:09.611Z,0.52
2023-12-12T06:16:09.739Z,0.51
2023-12-12T06:17:09.770Z,0.51
2023-12-12T06:18:10.007Z,0.52
2023-12-12T06:19:09.942Z,0.52
2023-12-12T06:20:10.019Z,0.53
2023-12-12T06:21:09.989Z,0.52
2023-12-12T06:22:10.154Z,0.52
2023-12-12T06:23:10.169Z,0.54
2023-12-12T06:24:10.189Z,0.53
2023-12-12T06:25:10.395Z,0.52
2023-12-12T06:26:10.358Z,0.51
2023-12-12T06:27:10.391Z,0.53
2023-12-12T06:28:10.549Z,0.53
2023-12-12T06:29:10.541Z,0.51
2023-12-12T06:30:10.623Z,0.53
2023-12-12T06:31:10.659Z,0.52
2023-12-12T06:32:10.739Z,0.54
2023-12-12T06:33:10.906Z,0.53
2023-12-12T06:34:12.780Z,0.54
2023-12-12T06:35:10.984Z,0.53
2023-12-12T06:36:10.842Z,0.54
2023-12-12T06:37:10.836Z,0.62
2023-12-12T06:38:10.819Z,0.61
2023-12-12T06:39:10.853Z,0.65
2023-12-12T06:40:14.054Z,0.70
2023-12-12T06:41:10.813Z,0.70
2023-12-12T06:42:10.899Z,0.72
2023-12-12T06:43:10.843Z,0.76
2023-12-12T06:44:10.809Z,0.84
2023-12-12T06:45:10.827Z,1.00
2023-12-12T06:46:10.839Z,1.01
2023-12-12T06:47:10.820Z,1.04
2023-12-12T06:48:10.911Z,1.00
2023-12-12T06:49:10.944Z,1.06
2023-12-12T06:50:10.869Z,1.04
2023-12-12T06:51:10.850Z,1.06
2023-12-12T06:52:10.850Z,1.06
2023-12-12T06:53:10.822Z,1.06
2023-12-12T06:54:10.848Z,1.06
2023-12-12T06:55:10.951Z,1.06
2023-12-12T06:56:10.867Z,1.04
2023-12-12T06:57:10.856Z,1.05
2023-12-12T06:58:10.872Z,1.05
2023-12-12T06:59:10.838Z,1.06
2023-12-12T07:00:10.837Z,1.10
2023-12-12T07:01:10.905Z,1.10
2023-12-12T07:02:10.919Z,1.13
2023-12-12T07:03:11.052Z,1.13
2023-12-12T07:04:10.912Z,1.16
2023-12-12T07:05:10.888Z,1.15
2023-12-12T07:06:11.170Z,1.15
2023-12-12T07:07:10.872Z,1.16
2023-12-12T07:08:10.835Z,1.15
2023-12-12T07:09:10.854Z,1.15
2023-12-12T07:10:10.902Z,1.16
2023-12-12T07:11:10.867Z,1.14
2023-12-12T07:12:10.829Z,1.13
2023-12-12T07:13:10.888Z,1.14
2023-12-12T07:14:10.861Z,1.16
2023-12-12T07:15:10.878Z,1.14
2023-12-12T07:16:10.898Z,1.14
2023-12-12T07:17:10.874Z,1.14
2023-12-12T07:18:10.880Z,1.16
2023-12-12T07:19:10.886Z,1.15
2023-12-12T07:20:10.954Z,1.15
2023-12-12T07:21:11.032Z,1.19
2023-12-12T07:22:10.854Z,1.15
2023-12-12T07:23:10.861Z,1.14
2023-12-12T07:24:11.395Z,1.14
2023-12-12T07:25:10.886Z,1.14
2023-12-12T07:26:10.879Z,1.12
2023-12-12T07:27:10.854Z,1.12
2023-12-12T07:28:10.913Z,1.10
2023-12-12T07:29:10.837Z,1.11
2023-12-12T07:30:10.895Z,1.08
2023-12-12T07:31:10.919Z,1.09
2023-12-12T07:32:10.844Z,1.09
2023-12-12T07:33:11.498Z,1.07
2023-12-12T07:34:10.993Z,1.06
2023-12-12T07:35:10.845Z,1.08
2023-12-12T07:36:10.882Z,1.05
2023-12-12T07:37:10.867Z,1.06
2023-12-12T07:38:10.865Z,1.06
2023-12-12T07:39:10.859Z,1.04
2023-12-12T07:40:10.880Z,1.05
2023-12-12T07:41:10.877Z,1.07
2023-12-12T07:42:10.893Z,1.15
2023-12-12T07:43:10.895Z,1.16
2023-12-12T07:44:11.482Z,1.22
2023-12-12T07:45:10.866Z,1.23
2023-12-12T07:46:10.889Z,1.18
2023-12-12T07:47:11.010Z,1.19
2023-12-12T07:48:11.490Z,1.21
2023-12-12T07:49:12.039Z,1.23
2023-12-12T07:50:11.023Z,1.27
2023-12-12T07:51:10.914Z,1.34
2023-12-12T07:52:10.892Z,1.34
2023-12-12T07:53:11.374Z,1.33
2023-12-12T07:54:10.951Z,1.34
2023-12-12T07:55:10.988Z,1.32
2023-12-12T07:56:10.931Z,1.33
2023-12-12T07:57:11.001Z,1.34
2023-12-12T07:58:11.413Z,1.31
2023-12-12T07:59:11.001Z,1.32
2023-12-12T08:00:10.968Z,1.32
2023-12-12T08:01:11.095Z,1.33
2023-12-12T08:02:11.143Z,1.29
2023-12-12T08:03:11.042Z,1.34
2023-12-12T08:04:11.085Z,1.30
2023-12-12T08:05:11.018Z,1.29
2023-12-12T08:06:11.032Z,1.28
2023-12-12T08:07:12.340Z,1.29
2023-12-12T08:08:11.085Z,1.28
2023-12-12T08:09:11.380Z,1.26
2023-12-12T08:10:11.146Z,1.28
2023-12-12T08:11:11.077Z,1.26
2023-12-12T08:12:11.103Z,1.23
2023-12-12T08:13:11.210Z,1.25
2023-12-12T08:14:11.448Z,1.22
2023-12-12T08:15:11.123Z,1.19
2023-12-12T08:16:11.139Z,1.19
2023-12-12T08:17:11.128Z,1.19
2023-12-12T08:18:11.148Z,1.19
2023-12-12T08:19:11.265Z,1.17
2023-12-12T08:20:11.197Z,1.19
2023-12-12T08:21:11.141Z,1.26
2023-12-12T08:22:11.201Z,1.36
2023-12-12T08:23:11.216Z,1.45
2023-12-12T08:24:11.190Z,1.57
2023-12-12T08:25:11.261Z,1.77
2023-12-12T08:26:11.247Z,1.90
2023-12-12T08:27:11.407Z,2.19
2023-12-12T08:28:11.309Z,2.45
2023-12-12T08:29:11.422Z,2.53
2023-12-12T08:30:11.350Z,2.68
2023-12-12T08:31:11.473Z,2.64
2023-12-12T08:32:11.303Z,2.59
2023-12-12T08:33:11.375Z,2.54
2023-12-12T08:34:11.484Z,2.44
2023-12-12T08:35:11.392Z,2.41
2023-12-12T08:36:11.359Z,2.38
2023-12-12T08:37:11.476Z,2.30
2023-12-12T08:38:11.381Z,2.20
2023-12-12T08:39:11.390Z,2.18
2023-12-12T08:40:11.657Z,2.20
2023-12-12T08:41:13.485Z,2.22
2023-12-12T08:42:11.436Z,2.18
2023-12-12T08:43:11.498Z,2.16
2023-12-12T08:44:11.415Z,2.08
2023-12-12T08:45:11.401Z,2.07
2023-12-12T08:46:11.463Z,2.04
2023-12-12T08:47:11.945Z,2.07
2023-12-12T08:48:11.444Z,2.03
2023-12-12T08:49:11.605Z,2.03
2023-12-12T08:50:11.490Z,2.01
2023-12-12T08:51:11.903Z,2.01
2023-12-12T08:52:11.523Z,1.95
2023-12-12T08:53:11.428Z,1.95
2023-12-12T08:54:11.451Z,1.95
2023-12-12T08:55:11.436Z,1.91
2023-12-12T08:56:11.454Z,1.88
2023-12-12T08:57:11.484Z,1.85
2023-12-12T08:58:11.501Z,1.83
2023-12-12T08:59:11.479Z,1.79
2023-12-12T09:00:11.460Z,1.74
2023-12-12T09:01:11.507Z,1.73
2023-12-12T09:02:11.550Z,1.71
2023-12-12T09:03:11.521Z,1.74
2023-12-12T09:04:12.002Z,1.76
2023-12-12T09:05:11.474Z,1.74
2023-12-12T09:06:11.508Z,1.72
2023-12-12T09:07:11.498Z,1.68
2023-12-12T09:08:11.447Z,1.67
2023-12-12T09:09:11.914Z,1.64
2023-12-12T09:10:11.483Z,1.64
2023-12-12T09:11:14.282Z,1.64
2023-12-12T09:12:11.478Z,1.59
2023-12-12T09:13:11.505Z,1.56
2023-12-12T09:14:11.568Z,1.52
2023-12-12T09:15:11.486Z,1.53
2023-12-12T09:16:11.587Z,1.52
2023-12-12T09:17:11.958Z,1.50
2023-12-12T09:18:19.149Z,1.49
2023-12-12T09:19:12.676Z,1.49
2023-12-12T09:20:11.643Z,1.47
2023-12-12T09:21:11.567Z,1.44
2023-12-12T09:22:11.954Z,1.42
2023-12-12T09:23:11.471Z,1.37
2023-12-12T09:24:11.475Z,1.39
2023-12-12T09:25:11.997Z,1.40
2023-12-12T09:26:11.475Z,1.40
2023-12-12T09:27:11.489Z,1.37
2023-12-12T09:28:11.537Z,1.35
2023-12-12T09:29:11.575Z,1.29
2023-12-12T09:30:11.648Z,1.25
2023-12-12T09:31:11.748Z,1.33
2023-12-12T09:32:11.636Z,1.47
2023-12-12T09:33:11.774Z,1.52
2023-12-12T09:34:11.816Z,1.81
2023-12-12T09:35:11.758Z,1.89
2023-12-12T09:36:11.799Z,1.80
2023-12-12T09:37:11.861Z,1.60
2023-12-12T09:38:11.918Z,1.50
2023-12-12T09:39:11.984Z,1.40
2023-12-12T09:40:11.961Z,1.31
2023-12-12T09:41:11.954Z,1.24
2023-12-12T09:42:12.002Z,1.18
2023-12-12T09:43:12.234Z,1.09
2023-12-12T09:44:12.049Z,1.00
2023-12-12T09:45:12.448Z,0.96
2023-12-12T09:46:12.134Z,0.90
2023-12-12T09:47:12.164Z,0.85
2023-12-12T09:48:12.363Z,0.84
2023-12-12T09:49:12.556Z,0.81
2023-12-12T09:50:12.391Z,0.79
2023-12-12T09:51:12.339Z,0.78
2023-12-12T09:52:12.359Z,0.75
2023-12-12T09:53:12.366Z,0.73
2023-12-12T09:54:12.372Z,0.74
2023-12-12T09:55:12.526Z,0.75
2023-12-12T09:56:13.349Z,0.75
2023-12-12T09:57:12.498Z,0.75
2023-12-12T09:58:12.609Z,0.74
2023-12-12T09:59:12.592Z,0.74
2023-12-12T10:00:12.928Z,0.75
2023-12-12T10:01:12.768Z,0.72
2023-12-12T10:02:16.642Z,0.71
2023-12-12T10:03:13.851Z,0.71
2023-12-12T10:04:12.815Z,0.72
2023-12-12T10:05:12.839Z,0.72
2023-12-12T10:06:12.794Z,0.72
2023-12-12T10:07:13.021Z,0.71
2023-12-12T10:08:14.872Z,0.72
2023-12-12T10:09:12.820Z,0.72
2023-12-12T10:10:12.935Z,0.73
2023-12-12T10:11:12.921Z,0.72
2023-12-12T10:12:13.458Z,0.73
2023-12-12T10:13:13.064Z,0.71
2023-12-12T10:14:13.045Z,0.72
2023-12-12T10:15:13.073Z,0.73
2023-12-12T10:16:13.193Z,0.73
2023-12-12T10:17:13.185Z,0.72
2023-12-12T10:18:13.290Z,0.73
2023-12-12T10:19:13.351Z,0.72
2023-12-12T10:20:13.312Z,0.72
2023-12-12T10:21:13.299Z,0.72
2023-12-12T10:22:13.350Z,0.70
2023-12-12T10:23:13.395Z,0.71
2023-12-12T10:24:13.385Z,0.72
2023-12-12T10:25:13.425Z,0.73
2023-12-12T10:26:13.393Z,0.73
2023-12-12T10:27:13.459Z,0.72
2023-12-12T10:28:13.452Z,0.71
2023-12-12T10:29:13.517Z,0.71
2023-12-12T10:30:13.632Z,0.69
2023-12-12T10:31:13.666Z,0.67
2023-12-12T10:32:13.591Z,0.68
2023-12-12T10:33:13.647Z,0.66
2023-12-12T10:34:13.716Z,0.64
2023-12-12T10:35:13.725Z,0.64
2023-12-12T10:36:13.712Z,0.63
2023-12-12T10:37:13.747Z,0.64
2023-12-12T10:38:13.712Z,0.64
2023-12-12T10:39:13.993Z,0.64
2023-12-12T10:40:13.807Z,0.65
2023-12-12T10:41:13.800Z,0.67
2023-12-12T10:42:13.817Z,0.65
2023-12-12T10:43:13.848Z,0.65
2023-12-12T10:44:13.825Z,0.66
2023-12-12T10:45:13.817Z,0.66
2023-12-12T10:46:13.848Z,0.67
2023-12-12T10:47:13.854Z,0.65
2023-12-12T10:48:13.933Z,0.65
2023-12-12T10:49:13.973Z,0.66
2023-12-12T10:50:13.898Z,0.67
2023-12-12T10:51:13.922Z,0.69
2023-12-12T10:52:13.942Z,0.68
2023-12-12T10:53:13.928Z,0.69
2023-12-12T10:54:13.946Z,0.70
2023-12-12T10:55:14.083Z,0.70
2023-12-12T10:56:14.051Z,0.70
2023-12-12T10:57:14.081Z,0.73
2023-12-12T10:58:14.485Z,0.73
2023-12-12T10:59:56.267Z,0.84
2023-12-12T11:01:14.333Z,0.80
2023-12-12T11:02:14.263Z,0.80
2023-12-12T11:03:14.496Z,0.79
2023-12-12T11:04:14.330Z,0.78
2023-12-12T11:05:14.289Z,0.79
2023-12-12T11:06:14.270Z,0.79
2023-12-12T11:07:14.255Z,0.79
2023-12-12T11:08:14.215Z,0.78
2023-12-12T11:09:14.355Z,0.78
2023-12-12T11:10:14.533Z,0.78
2023-12-12T11:11:14.432Z,0.76
2023-12-12T11:12:14.487Z,0.77
2023-12-12T11:13:14.566Z,0.77
2023-12-12T11:14:14.604Z,0.77
2023-12-12T11:15:15.005Z,0.76
2023-12-12T11:16:14.747Z,0.77
2023-12-12T11:17:14.981Z,0.77
2023-12-12T11:18:14.829Z,0.77
2023-12-12T11:19:14.936Z,0.76
2023-12-12T11:20:15.638Z,0.76
2023-12-12T11:21:14.948Z,0.74
2023-12-12T11:22:15.104Z,0.76
2023-12-12T11:23:15.991Z,0.77
2023-12-12T11:24:15.173Z,0.76
2023-12-12T11:25:15.201Z,0.74
2023-12-12T11:26:15.290Z,0.71
2023-12-12T11:27:15.499Z,0.76
2023-12-12T11:28:15.392Z,0.76
2023-12-12T11:29:15.432Z,0.75
2023-12-12T11:30:15.549Z,0.73
2023-12-12T11:31:15.610Z,0.73
2023-12-12T11:32:15.593Z,0.70
2023-12-12T11:33:15.768Z,0.70
2023-12-12T11:34:15.810Z,0.69
2023-12-12T11:35:15.806Z,0.68
2023-12-12T11:36:15.855Z,0.67
2023-12-12T11:37:16.015Z,0.74
2023-12-12T11:38:15.982Z,0.74
2023-12-12T11:39:16.062Z,0.72
2023-12-12T11:40:16.201Z,0.75
2023-12-12T11:41:16.200Z,0.79
2023-12-12T11:42:16.220Z,0.78
2023-12-12T11:43:16.215Z,0.75
2023-12-12T11:44:16.233Z,0.73
2023-12-12T11:45:16.480Z,0.73
2023-12-12T11:46:16.384Z,0.70
2023-12-12T11:47:16.391Z,0.69
2023-12-12T11:48:16.591Z,0.67
2023-12-12T11:49:16.549Z,0.66
2023-12-12T11:50:17.012Z,0.65
2023-12-12T11:51:16.573Z,0.65
2023-12-12T11:52:16.751Z,0.64
2023-12-12T11:53:16.650Z,0.64
2023-12-12T11:54:16.746Z,0.63
2023-12-12T11:55:17.071Z,0.62
2023-12-12T11:56:16.925Z,0.62
2023-12-12T11:57:16.977Z,0.61
2023-12-12T11:58:17.054Z,0.60
2023-12-12T11:59:17.060Z,0.60
2023-12-12T12:00:17.489Z,0.60
2023-12-12T12:01:17.193Z,0.59
2023-12-12T12:02:17.267Z,0.60
2023-12-12T12:03:17.362Z,0.60
2023-12-12T12:04:17.434Z,0.61
2023-12-12T12:05:17.566Z,0.60
2023-12-12T12:06:17.522Z,0.60
2023-12-12T12:07:17.589Z,0.60
2023-12-12T12:08:21.572Z,0.60
2023-12-12T12:09:18.586Z,0.60
2023-12-12T12:10:17.666Z,0.59
2023-12-12T12:11:17.638Z,0.60
2023-12-12T12:12:17.622Z,0.59
2023-12-12T12:13:17.668Z,0.59
2023-12-12T12:14:17.641Z,0.58
2023-12-12T12:15:17.650Z,0.58
2023-12-12T12:16:17.685Z,0.59
2023-12-12T12:17:17.632Z,0.59
2023-12-12T12:18:17.710Z,0.58
2023-12-12T12:19:17.767Z,0.57
2023-12-12T12:20:17.603Z,0.57
2023-12-12T12:21:17.701Z,0.59
2023-12-12T12:22:17.821Z,0.60
2023-12-12T12:23:17.769Z,0.59
2023-12-12T12:24:17.827Z,0.62
2023-12-12T12:25:17.884Z,0.63
2023-12-12T12:26:17.967Z,0.61
2023-12-12T12:27:17.985Z,0.63
2023-12-12T12:28:18.029Z,0.64
2023-12-12T12:29:18.170Z,0.63
2023-12-12T12:30:18.234Z,0.63
2023-12-12T12:31:18.253Z,0.64
2023-12-12T12:32:18.188Z,0.62
2023-12-12T12:33:18.227Z,0.64
2023-12-12T12:34:18.337Z,0.63
2023-12-12T12:35:18.451Z,0.62
2023-12-12T12:36:18.358Z,0.62
2023-12-12T12:37:18.404Z,0.62
2023-12-12T12:38:18.424Z,0.61
2023-12-12T12:39:18.517Z,0.62
2023-12-12T12:40:18.556Z,0.60
2023-12-12T12:41:18.573Z,0.61
2023-12-12T12:42:18.659Z,0.60
2023-12-12T12:43:18.972Z,0.60
2023-12-12T12:44:18.740Z,0.59
2023-12-12T12:45:18.787Z,0.59
2023-12-12T12:46:18.878Z,0.58
2023-12-12T12:47:18.947Z,0.58
2023-12-12T12:48:20.956Z,0.58
2023-12-12T12:49:19.102Z,0.55
2023-12-12T12:50:18.982Z,0.57
2023-12-12T12:51:18.954Z,0.57
2023-12-12T12:52:18.961Z,0.57
2023-12-12T12:53:19.058Z,0.56
2023-12-12T12:54:18.966Z,0.54
2023-12-12T12:55:19.014Z,0.56
2023-12-12T12:56:18.979Z,0.55
2023-12-12T12:57:18.962Z,0.56
2023-12-12T12:58:19.060Z,0.56
2023-12-12T12:59:18.968Z,0.56
2023-12-12T13:00:18.957Z,0.55
2023-12-12T13:01:19.043Z,0.54
2023-12-12T13:02:18.987Z,0.54
2023-12-12T13:03:19.046Z,0.53
2023-12-12T13:04:19.080Z,0.55
2023-12-12T13:05:19.925Z,0.54
2023-12-12T13:06:19.040Z,0.53
2023-12-12T13:07:19.030Z,0.52
2023-12-12T13:08:18.975Z,0.52
2023-12-12T13:09:19.218Z,0.53
2023-12-12T13:10:19.090Z,0.54
2023-12-12T13:11:19.598Z,0.53
2023-12-12T13:12:19.038Z,0.54
2023-12-12T13:13:19.105Z,0.51
2023-12-12T13:14:18.987Z,0.54
2023-12-12T13:15:19.007Z,0.53
2023-12-12T13:16:19.086Z,0.55
2023-12-12T13:17:18.995Z,0.55
2023-12-12T13:18:19.588Z,0.55
2023-12-12T13:19:19.082Z,0.53
2023-12-12T13:20:19.118Z,0.56
2023-12-12T13:21:19.022Z,0.55